createdAt,value
2022-12-23T00:34:34.672Z,0.80
2022-12-23T01:51:01.729Z,1.30
2022-12-23T01:56:33.739Z,0.87
2022-12-23T01:59:10.707Z,1.80
2022-12-23T02:01:56.893Z,1.10
2022-12-23T02:04:27.137Z,1.07
2022-12-23T02:07:13.120Z,1.00
2022-12-23T02:09:43.556Z,0.87
2022-12-23T02:12:40.043Z,1.27
2022-12-23T02:15:42.410Z,1.07
2022-12-23T02:18:27.416Z,0.90
2022-12-23T02:21:14.384Z,1.20
2022-12-23T02:24:35.670Z,1.20
2022-12-23T02:27:13.308Z,0.90
2022-12-23T02:30:09.424Z,1.87
2022-12-23T02:32:51.529Z,1.07
2022-12-23T02:35:28.959Z,0.87
2022-12-23T02:38:04.528Z,1.73
2022-12-23T02:40:41.152Z,1.00
2022-12-23T02:43:16.970Z,1.10
2022-12-23T02:45:49.773Z,1.63
2022-12-23T02:48:25.985Z,1.93
2022-12-23T02:50:56.448Z,1.40
2022-12-23T02:53:30.925Z,1.20
2022-12-23T02:56:01.975Z,1.30
2022-12-23T02:58:35.639Z,3.03
2022-12-23T03:01:07.297Z,1.10
2022-12-23T03:03:38.302Z,0.80
2022-12-23T03:06:17.613Z,1.00
2022-12-23T03:08:46.435Z,1.20
2022-12-23T03:11:17.097Z,1.23
2022-12-23T03:14:11.891Z,0.77
2022-12-23T03:16:52.920Z,2.10
2022-12-23T03:19:31.997Z,0.90
2022-12-23T03:22:09.634Z,0.80
2022-12-23T03:24:44.571Z,0.90
2022-12-23T03:27:18.108Z,3.17
2022-12-23T03:29:57.010Z,1.03
2022-12-23T03:32:29.144Z,1.00
2022-12-23T03:35:02.124Z,1.70
2022-12-23T03:37:33.746Z,1.00
2022-12-23T03:40:09.150Z,1.00
2022-12-23T03:42:39.453Z,1.00
2022-12-23T03:48:10.209Z,0.90
2022-12-23T03:50:43.248Z,1.07
2022-12-23T03:53:15.940Z,1.33
2022-12-23T03:55:49.713Z,0.80
2022-12-23T03:58:26.274Z,0.80
2022-12-23T04:01:01.071Z,0.70
2022-12-23T04:03:37.148Z,0.80
2022-12-23T04:06:13.436Z,1.13
2022-12-23T04:08:45.254Z,0.80
2022-12-23T04:11:14.386Z,1.00
2022-12-23T04:13:42.679Z,1.20
2022-12-23T04:16:11.702Z,0.87
2022-12-23T04:18:40.193Z,1.03
2022-12-23T04:21:09.735Z,0.90
2022-12-23T04:23:38.131Z,1.63
2022-12-23T04:26:06.274Z,0.77
2022-12-23T04:28:34.610Z,0.70
2022-12-23T04:31:03.719Z,0.70
2022-12-23T04:33:32.844Z,1.00
2022-12-23T04:36:01.271Z,1.20
2022-12-23T04:38:40.599Z,0.60
2022-12-23T04:41:12.040Z,0.70
2022-12-23T04:43:58.207Z,1.00
2022-12-23T04:46:43.043Z,0.70
2022-12-23T04:49:11.900Z,0.80
2022-12-23T04:51:40.555Z,0.80
2022-12-23T04:54:12.073Z,1.23
2022-12-23T04:56:43.733Z,1.00
2022-12-23T04:59:12.151Z,0.80
2022-12-23T05:01:42.488Z,1.00
2022-12-23T05:04:11.467Z,0.97
2022-12-23T05:06:40.715Z,1.07
2022-12-23T05:09:11.722Z,1.00
2022-12-23T05:11:42.499Z,0.97
2022-12-23T05:20:41.275Z,1.10
2022-12-23T05:23:13.065Z,1.07
2022-12-23T05:45:49.550Z,0.60
2022-12-23T05:48:18.507Z,0.70
2022-12-23T05:50:48.020Z,0.67
2022-12-23T06:10:37.951Z,0.60
2022-12-23T06:13:10.755Z,0.40
2022-12-23T06:15:39.211Z,0.50
2022-12-23T06:23:39.061Z,0.50
2022-12-23T06:28:44.297Z,0.50
2022-12-23T06:31:12.499Z,0.50
2022-12-23T06:33:40.658Z,0.30
2022-12-23T06:36:10.986Z,0.37
2022-12-23T06:38:42.242Z,0.40
2022-12-23T06:41:11.108Z,0.27
2022-12-23T06:43:39.806Z,0.50
2022-12-23T06:46:09.739Z,0.37
2022-12-23T06:48:38.388Z,0.20
2022-12-23T06:51:06.992Z,0.20
2022-12-23T06:53:35.093Z,0.60
2022-12-23T06:56:06.846Z,0.30
2022-12-23T06:58:53.273Z,0.90
2022-12-23T07:02:01.155Z,1.20
2022-12-23T07:04:49.908Z,1.10
2022-12-23T07:07:41.711Z,1.80
2022-12-23T07:12:58.993Z,5.00
2022-12-23T07:15:27.952Z,5.37
2022-12-23T07:21:19.748Z,3.00
2022-12-23T07:23:50.404Z,4.23
2022-12-23T07:48:04.767Z,4.70
2022-12-23T07:51:01.418Z,3.30
2022-12-23T07:53:30.994Z,4.60
2022-12-23T07:56:15.111Z,5.10
2022-12-23T07:58:49.367Z,4.27
2022-12-23T08:01:19.777Z,6.23
2022-12-23T08:06:28.288Z,4.70
2022-12-23T08:08:56.527Z,4.30
2022-12-23T08:11:28.392Z,4.97
2022-12-23T08:14:23.392Z,4.47
2022-12-23T08:16:57.160Z,4.90
2022-12-23T08:19:31.146Z,5.50
2022-12-23T08:22:04.257Z,3.83
2022-12-23T08:24:38.516Z,5.60
2022-12-23T08:27:10.652Z,3.90
2022-12-23T08:29:46.115Z,4.60
2022-12-23T08:32:25.513Z,5.63
2022-12-23T08:35:14.436Z,4.03
2022-12-23T08:37:50.168Z,5.27
2022-12-23T08:40:19.292Z,5.23
2022-12-23T08:42:47.790Z,4.23
2022-12-23T08:45:16.813Z,4.23
2022-12-23T08:48:07.062Z,5.27
2022-12-23T08:50:50.671Z,5.07
2022-12-23T08:53:25.058Z,4.60
2022-12-23T08:56:01.392Z,5.40
2022-12-23T09:01:16.327Z,5.77
2022-12-23T09:03:52.862Z,5.60
2022-12-23T09:12:10.895Z,4.73
2022-12-23T09:14:45.067Z,5.63
2022-12-23T09:17:39.725Z,4.30
2022-12-23T09:20:18.199Z,5.27
2022-12-23T09:22:51.789Z,5.17
2022-12-23T09:25:20.728Z,4.73
2022-12-23T09:30:49.717Z,5.87
2022-12-23T09:33:21.176Z,5.20
2022-12-23T09:35:58.791Z,5.17
2022-12-23T09:38:48.304Z,6.17
2022-12-23T09:45:15.796Z,3.93
2022-12-23T09:47:57.756Z,4.73
2022-12-23T09:50:49.029Z,7.13
2022-12-23T09:53:20.590Z,5.37
2022-12-23T09:55:57.200Z,4.00
2022-12-23T09:58:48.920Z,5.93
2022-12-23T10:01:43.014Z,5.30
2022-12-23T10:04:45.215Z,5.87
2022-12-23T10:07:36.591Z,5.17
2022-12-23T10:10:15.907Z,5.93
2022-12-23T10:12:49.150Z,6.40
2022-12-23T10:15:24.344Z,4.90
2022-12-23T10:17:59.293Z,5.37
2022-12-23T10:20:38.307Z,5.23
2022-12-23T10:23:15.054Z,5.27
2022-12-23T10:29:16.853Z,4.63
2022-12-23T10:34:59.000Z,5.20
2022-12-23T10:37:39.679Z,4.47
2022-12-23T10:40:34.114Z,6.50
2022-12-23T10:43:33.367Z,6.63
2022-12-23T10:51:51.998Z,7.10
2022-12-23T10:54:45.580Z,3.17
2022-12-23T10:57:34.452Z,5.87
2022-12-23T11:00:12.147Z,4.40
2022-12-23T11:03:14.437Z,5.00
2022-12-23T11:09:09.839Z,7.07
2022-12-23T11:15:27.895Z,4.67
2022-12-23T11:18:03.203Z,3.00
2022-12-23T11:20:34.149Z,3.57
2022-12-23T11:25:56.473Z,5.67
2022-12-23T11:28:27.337Z,6.30
2022-12-23T11:31:02.026Z,4.93
2022-12-23T11:33:32.823Z,4.70
2022-12-23T11:36:08.349Z,5.17
2022-12-23T11:38:39.471Z,4.00
2022-12-23T11:44:09.723Z,3.90
2022-12-23T11:46:39.538Z,4.90
2022-12-23T11:49:26.655Z,3.87
2022-12-23T11:52:04.146Z,4.37
2022-12-23T11:54:58.247Z,3.97
2022-12-23T11:57:38.786Z,4.97
2022-12-23T12:00:23.081Z,5.17
2022-12-23T12:03:02.322Z,4.03
2022-12-23T12:05:37.497Z,4.87
2022-12-23T12:08:37.473Z,3.20
2022-12-23T12:15:51.942Z,4.43
2022-12-23T12:18:24.219Z,5.60
2022-12-23T12:21:05.989Z,4.77
2022-12-23T12:24:17.031Z,5.90
2022-12-23T12:27:05.381Z,5.87
2022-12-23T12:29:41.767Z,5.77
2022-12-23T12:32:25.106Z,4.30
2022-12-23T12:35:06.377Z,3.83
2022-12-23T12:40:45.165Z,5.00
2022-12-23T12:46:36.645Z,5.87
2022-12-23T12:49:17.940Z,4.53
2022-12-23T12:51:53.511Z,5.63
2022-12-23T12:54:44.073Z,5.70
2022-12-23T12:57:29.794Z,5.33
2022-12-23T13:00:08.864Z,4.77
2022-12-23T13:09:15.808Z,5.27
2022-12-23T13:14:48.140Z,6.57
2022-12-23T13:17:30.609Z,4.60
2022-12-23T13:20:08.572Z,5.97
2022-12-23T13:26:10.221Z,5.23
2022-12-23T13:38:15.109Z,5.93
2022-12-23T13:40:59.603Z,5.63
2022-12-23T13:43:37.985Z,4.23
2022-12-23T13:46:28.639Z,6.10
2022-12-23T13:49:08.024Z,6.10
2022-12-23T13:51:59.754Z,5.47
2022-12-23T13:54:53.027Z,6.03
2022-12-23T13:57:43.070Z,5.53
2022-12-23T14:00:43.237Z,6.17
2022-12-23T14:03:27.469Z,5.30
2022-12-23T14:05:58.950Z,6.10
2022-12-23T14:11:20.632Z,5.97
2022-12-23T14:14:08.554Z,5.70
2022-12-23T14:16:53.067Z,7.07
2022-12-23T14:19:47.663Z,5.73
2022-12-23T14:22:40.688Z,7.37
2022-12-23T14:25:37.066Z,5.70
2022-12-23T14:28:37.248Z,5.83
2022-12-23T14:31:48.996Z,6.87
2022-12-23T14:34:31.431Z,6.03
2022-12-23T14:37:42.576Z,5.70
2022-12-23T14:40:48.514Z,4.23
2022-12-23T14:43:52.080Z,6.07
2022-12-23T14:47:19.336Z,5.17
2022-12-23T14:50:40.442Z,6.40
2022-12-23T14:53:48.117Z,4.27
2022-12-23T14:56:34.746Z,6.70
2022-12-23T15:07:32.017Z,7.83
2022-12-23T15:13:33.434Z,4.93
2022-12-23T15:16:24.052Z,4.50
2022-12-23T15:19:04.990Z,7.17
2022-12-23T15:22:20.786Z,6.20
2022-12-23T15:24:56.297Z,5.70
2022-12-23T16:06:23.473Z,6.30
2022-12-23T16:11:45.628Z,7.30
2022-12-23T16:16:49.890Z,6.10
2022-12-23T16:19:43.888Z,6.07
2022-12-23T16:22:29.405Z,5.20
2022-12-23T18:04:07.842Z,6.57
2022-12-23T18:16:03.531Z,5.03
2022-12-23T18:18:45.852Z,5.47
2022-12-23T18:22:16.279Z,6.23
2022-12-23T18:25:05.370Z,7.47
2022-12-23T18:30:26.161Z,6.60
2022-12-23T18:32:55.541Z,5.83
2022-12-23T18:41:16.269Z,7.97
2022-12-23T18:43:48.362Z,7.67
2022-12-23T18:49:22.860Z,6.93
2022-12-23T18:51:58.549Z,9.17
2022-12-23T18:54:53.871Z,6.17
2022-12-23T18:57:51.962Z,7.87
2022-12-23T19:00:33.040Z,7.60
2022-12-23T19:03:06.304Z,6.97
2022-12-23T19:05:52.067Z,6.43
2022-12-23T19:08:27.998Z,7.77
2022-12-23T19:14:25.570Z,6.80
2022-12-23T19:20:15.562Z,6.10
2022-12-23T19:25:55.282Z,5.80
2022-12-23T19:28:32.974Z,6.87
2022-12-23T19:31:27.262Z,6.17
2022-12-23T19:33:57.905Z,7.23
2022-12-23T19:36:43.122Z,4.50
2022-12-23T19:39:17.347Z,4.57
2022-12-23T19:41:47.648Z,7.50
2022-12-23T19:44:16.708Z,5.10
2022-12-23T19:47:22.323Z,6.80
2022-12-23T19:49:53.282Z,6.57
2022-12-23T19:53:04.603Z,7.13
2022-12-23T19:55:58.752Z,8.03
2022-12-23T19:58:40.605Z,7.20
2022-12-23T20:01:28.366Z,7.73
2022-12-23T20:04:03.434Z,6.80
2022-12-23T20:09:43.347Z,7.50
2022-12-23T20:12:21.340Z,4.57
2022-12-23T20:15:16.920Z,4.97
2022-12-23T20:21:39.518Z,4.73
2022-12-23T20:24:08.994Z,5.77
2022-12-23T20:26:41.727Z,5.57
2022-12-23T20:32:13.794Z,6.07
2022-12-23T20:34:44.346Z,6.07
2022-12-23T20:37:16.365Z,4.43
2022-12-23T20:39:59.225Z,6.13
2022-12-23T20:42:58.246Z,6.30
2022-12-23T20:45:40.884Z,6.77
2022-12-23T20:51:24.251Z,5.93
2022-12-23T20:54:47.273Z,6.13
2022-12-23T21:03:16.298Z,6.10
2022-12-23T21:06:02.738Z,7.20
2022-12-23T21:08:31.337Z,4.67
2022-12-23T21:11:25.301Z,4.93
2022-12-23T21:16:46.586Z,6.00
2022-12-23T21:24:42.748Z,6.83
2022-12-23T21:27:14.909Z,7.10
2022-12-23T21:33:10.943Z,5.60
2022-12-23T21:44:25.832Z,5.60
2022-12-23T21:46:56.220Z,4.07
2022-12-23T21:49:38.910Z,6.50
2022-12-23T21:52:12.334Z,6.17
2022-12-23T21:57:40.884Z,4.90
2022-12-23T22:00:20.272Z,6.43
2022-12-23T22:02:53.940Z,5.90
2022-12-23T22:05:36.551Z,3.47
2022-12-23T22:08:07.096Z,5.03
2022-12-23T22:10:39.525Z,7.17
2022-12-23T22:13:10.404Z,5.60
2022-12-23T22:26:00.160Z,6.83
2022-12-23T22:28:29.615Z,4.70
2022-12-23T22:36:58.947Z,6.57
2022-12-23T22:39:28.712Z,6.03
2022-12-23T22:41:57.626Z,6.23
2022-12-23T22:44:26.268Z,6.20
2022-12-23T22:46:54.742Z,6.10
2022-12-23T23:16:54.416Z,4.27
2022-12-23T23:38:13.542Z,3.07
2022-12-23T23:40:42.220Z,4.57
2022-12-23T23:57:05.769Z,3.53
2022-12-23T23:59:34.607Z,2.53
